Hickory Grove, South Carolina
Current Conditions -  °F | °C
As of 1:54 PM on Friday 24 Oct 2014 (Local Time) from KUZA Reporting Station
Clear Clear  
Wind Chill: 66°   Ceiling: Unl
Heat Index: 66°   Visibility: 10mi
Dew Point: 39°   Wind: 5mph
Humidity: 37%   Direction: 10°N
Pressure: 30.03"   Gusts: NA
Location:  34.98°N, 81.42°W
Report Text: KUZA 241754Z AUTO 01004KT 10SM CLR 19/04 A3003 RMK AO2 SLP166 T01890039 10194 20050 58023
Loading
Personal Weather Stations






























Interactive Weather Map
Tropical Storm Tracking
New forecast layout! Learn more

10-Day Weather Forecast

Advertisements
Track Severe Weather on mobile